createdAt,value
2022-11-29T00:01:45.018Z,7.19
2022-11-29T00:04:13.913Z,6.89
2022-11-29T00:06:42.748Z,6.86
2022-11-29T00:09:14.306Z,6.94
2022-11-29T00:12:01.972Z,6.70
2022-11-29T00:14:31.331Z,6.68
2022-11-29T00:17:05.208Z,6.83
2022-11-29T00:19:35.891Z,6.40
2022-11-29T00:22:05.671Z,6.36
2022-11-29T00:24:35.625Z,6.41
2022-11-29T00:27:04.477Z,6.33
2022-11-29T00:29:34.951Z,6.29
2022-11-29T00:32:04.490Z,6.20
2022-11-29T00:34:33.236Z,6.29
2022-11-29T00:37:02.071Z,6.24
2022-11-29T00:39:31.495Z,5.90
2022-11-29T00:42:00.088Z,5.85
2022-11-29T00:44:28.806Z,5.31
2022-11-29T00:46:57.813Z,5.04
2022-11-29T00:49:26.804Z,4.88
2022-11-29T00:51:55.369Z,4.57
2022-11-29T00:54:24.456Z,4.61
2022-11-29T00:56:53.797Z,4.51
2022-11-29T00:59:23.194Z,4.47
2022-11-29T01:01:52.170Z,4.29
2022-11-29T01:04:21.108Z,4.29
2022-11-29T01:06:54.262Z,4.26
2022-11-29T01:09:23.231Z,4.21
2022-11-29T01:11:52.128Z,4.34
2022-11-29T01:14:21.195Z,4.54
2022-11-29T01:16:49.861Z,4.52
2022-11-29T01:19:18.845Z,4.49
2022-11-29T01:21:48.619Z,4.73
2022-11-29T01:24:17.616Z,4.80
2022-11-29T01:26:46.597Z,4.79
2022-11-29T01:29:16.439Z,4.83
2022-11-29T01:31:45.114Z,4.80
2022-11-29T01:34:14.010Z,5.25
2022-11-29T01:36:42.724Z,5.13
2022-11-29T01:39:11.926Z,5.66
2022-11-29T01:41:40.724Z,5.76
2022-11-29T01:44:15.536Z,5.92
2022-11-29T01:46:47.359Z,5.85
2022-11-29T01:49:30.328Z,5.94
2022-11-29T01:52:07.832Z,5.84
2022-11-29T01:54:41.177Z,5.98
2022-11-29T01:57:10.990Z,6.03
2022-11-29T01:59:45.001Z,6.49
2022-11-29T02:02:35.411Z,6.77
2022-11-29T02:05:06.322Z,7.07
2022-11-29T02:07:35.367Z,7.32
2022-11-29T02:10:05.546Z,7.52
2022-11-29T02:12:39.501Z,8.10
2022-11-29T02:15:32.725Z,8.37
2022-11-29T02:18:22.257Z,8.67
2022-11-29T02:21:29.190Z,9.13
2022-11-29T02:24:54.845Z,9.71
2022-11-29T02:27:35.350Z,10.18
2022-11-29T02:30:34.576Z,10.48
2022-11-29T02:33:24.642Z,10.79
2022-11-29T02:36:22.972Z,10.94
2022-11-29T02:39:15.368Z,11.01
2022-11-29T02:42:31.510Z,11.47
2022-11-29T02:45:15.671Z,11.61
2022-11-29T02:48:11.781Z,11.32
2022-11-29T02:50:51.184Z,10.92
2022-11-29T02:53:52.405Z,10.82
2022-11-29T02:56:42.719Z,10.82
2022-11-29T02:59:22.528Z,10.78
2022-11-29T03:02:19.570Z,10.60
2022-11-29T03:04:59.791Z,10.49
2022-11-29T03:07:52.083Z,10.58
2022-11-29T03:10:32.737Z,10.50
2022-11-29T03:13:06.584Z,10.19
2022-11-29T03:15:39.880Z,10.27
2022-11-29T03:18:09.599Z,10.33
2022-11-29T03:20:53.382Z,10.23
2022-11-29T03:23:46.136Z,10.25
2022-11-29T03:26:17.684Z,10.24
2022-11-29T03:29:08.714Z,10.23
2022-11-29T03:31:52.562Z,10.17
2022-11-29T03:34:33.312Z,10.09
2022-11-29T03:37:26.988Z,10.24
2022-11-29T03:40:11.860Z,10.31
2022-11-29T03:42:52.124Z,10.36
2022-11-29T03:45:39.418Z,10.41
2022-11-29T03:48:18.930Z,10.30
2022-11-29T03:50:55.909Z,10.37
2022-11-29T03:53:49.301Z,10.44
2022-11-29T03:56:30.045Z,10.49
2022-11-29T03:59:26.477Z,10.55
2022-11-29T04:02:13.456Z,10.66
2022-11-29T04:05:09.736Z,10.75
2022-11-29T04:07:53.693Z,10.84
2022-11-29T04:10:46.893Z,10.88
2022-11-29T04:13:43.011Z,10.98
2022-11-29T04:16:33.795Z,11.13
2022-11-29T04:19:39.290Z,11.35
2022-11-29T04:22:44.614Z,11.34
2022-11-29T04:25:19.457Z,11.35
2022-11-29T04:27:55.773Z,11.29
2022-11-29T04:30:26.702Z,11.22
2022-11-29T04:33:08.575Z,11.38
2022-11-29T04:35:40.622Z,11.40
2022-11-29T04:38:44.335Z,11.63
2022-11-29T04:41:46.460Z,11.82
2022-11-29T04:44:24.367Z,11.93
2022-11-29T04:47:35.295Z,11.81
2022-11-29T04:50:25.230Z,12.08
2022-11-29T04:53:25.679Z,12.29
2022-11-29T04:55:58.367Z,12.47
2022-11-29T04:58:36.647Z,12.53
2022-11-29T05:01:31.685Z,13.11
2022-11-29T05:04:23.419Z,13.72
2022-11-29T05:07:20.988Z,13.91
2022-11-29T05:10:00.646Z,13.87
2022-11-29T05:12:59.707Z,14.48
2022-11-29T05:16:05.754Z,15.13
2022-11-29T05:18:50.334Z,15.25
2022-11-29T05:21:40.186Z,15.54
2022-11-29T05:24:33.888Z,15.82
2022-11-29T05:27:23.629Z,15.77
2022-11-29T05:30:13.225Z,15.59
2022-11-29T05:33:00.754Z,15.25
2022-11-29T05:35:48.980Z,14.85
2022-11-29T05:38:46.229Z,14.42
2022-11-29T05:41:46.317Z,13.94
2022-11-29T05:44:41.549Z,13.57
2022-11-29T05:47:12.452Z,13.34
2022-11-29T05:50:08.252Z,13.30
2022-11-29T05:52:54.777Z,13.30
2022-11-29T05:56:14.622Z,13.27
2022-11-29T05:58:52.185Z,13.13
2022-11-29T06:01:25.876Z,13.21
2022-11-29T06:04:13.205Z,13.30
2022-11-29T06:07:24.777Z,13.28
2022-11-29T06:10:07.946Z,13.51
2022-11-29T06:12:37.274Z,13.79
2022-11-29T06:15:41.859Z,14.35
2022-11-29T06:18:17.527Z,15.18
2022-11-29T06:21:01.580Z,15.50
2022-11-29T06:24:08.910Z,16.60
2022-11-29T06:27:10.875Z,17.58
2022-11-29T06:29:52.023Z,18.25
2022-11-29T06:32:57.795Z,18.44
2022-11-29T06:35:48.486Z,18.56
2022-11-29T06:38:28.203Z,18.72
2022-11-29T06:41:02.339Z,18.91
2022-11-29T06:43:32.635Z,19.30
2022-11-29T06:46:14.493Z,19.53
2022-11-29T06:49:15.782Z,19.83
2022-11-29T06:52:09.069Z,20.50
2022-11-29T06:55:02.300Z,20.89
2022-11-29T06:58:00.574Z,21.25
2022-11-29T07:00:48.757Z,21.68
2022-11-29T07:03:33.299Z,21.67
2022-11-29T07:06:12.966Z,21.24
2022-11-29T07:08:42.483Z,21.04
2022-11-29T07:11:15.390Z,20.84
2022-11-29T07:13:44.850Z,21.08
2022-11-29T07:16:36.492Z,21.26
2022-11-29T07:19:20.091Z,21.22
2022-11-29T07:22:06.266Z,21.13
2022-11-29T07:24:59.961Z,21.45
2022-11-29T07:27:42.739Z,21.86
2022-11-29T07:30:17.454Z,21.99
2022-11-29T07:33:00.324Z,21.99
2022-11-29T07:35:50.566Z,21.96
2022-11-29T07:38:32.074Z,21.65
2022-11-29T07:41:07.067Z,21.70
2022-11-29T07:43:42.062Z,22.48
2022-11-29T07:46:11.452Z,22.67
2022-11-29T07:48:40.066Z,22.77
2022-11-29T07:51:09.154Z,22.23
2022-11-29T07:53:43.410Z,22.22
2022-11-29T07:56:13.412Z,22.54
2022-11-29T07:58:42.178Z,23.11
2022-11-29T08:01:11.455Z,22.81
2022-11-29T08:03:42.128Z,23.14
2022-11-29T08:06:11.274Z,22.96
2022-11-29T08:08:43.997Z,22.70
2022-11-29T08:14:01.987Z,22.75
2022-11-29T08:16:31.154Z,23.11
2022-11-29T08:18:59.921Z,22.30
2022-11-29T08:21:29.526Z,21.92
2022-11-29T08:23:58.339Z,21.46
2022-11-29T08:26:31.384Z,21.68
2022-11-29T08:29:00.871Z,21.75
2022-11-29T08:31:29.541Z,21.96
2022-11-29T08:33:58.590Z,21.79
2022-11-29T08:36:27.549Z,21.78
2022-11-29T08:39:07.538Z,21.66
2022-11-29T08:41:37.983Z,20.66
2022-11-29T08:44:07.589Z,20.90
2022-11-29T08:46:54.758Z,21.16
2022-11-29T08:49:24.086Z,21.48
2022-11-29T08:52:14.426Z,21.32
2022-11-29T08:54:44.183Z,21.46
2022-11-29T09:00:02.095Z,20.97
2022-11-29T09:02:30.779Z,20.89
2022-11-29T09:04:59.607Z,20.30
2022-11-29T09:07:28.370Z,20.99
2022-11-29T09:09:57.248Z,20.55
2022-11-29T09:12:26.203Z,20.20
2022-11-29T09:14:55.099Z,19.54
2022-11-29T09:17:23.768Z,19.33
2022-11-29T09:19:52.558Z,18.83
2022-11-29T09:22:21.393Z,18.53
2022-11-29T09:24:50.265Z,17.93
2022-11-29T09:27:18.968Z,17.98
2022-11-29T09:29:48.770Z,18.07
2022-11-29T09:32:17.609Z,18.21
2022-11-29T09:34:46.916Z,17.88
2022-11-29T09:37:16.006Z,18.21
2022-11-29T09:39:44.925Z,17.56
2022-11-29T09:42:55.605Z,17.49
2022-11-29T09:45:44.327Z,17.25
2022-11-29T09:48:16.104Z,17.60
2022-11-29T09:50:59.765Z,17.79
2022-11-29T09:53:55.725Z,17.99
2022-11-29T09:56:44.760Z,17.85
2022-11-29T09:59:24.635Z,18.05
2022-11-29T10:02:21.040Z,17.91
2022-11-29T10:04:56.487Z,18.05
2022-11-29T10:07:39.464Z,18.17
2022-11-29T10:10:12.744Z,18.42
2022-11-29T10:12:47.867Z,18.04
2022-11-29T10:15:26.895Z,17.83
2022-11-29T10:18:45.170Z,17.99
2022-11-29T10:21:21.651Z,17.76
2022-11-29T10:23:59.278Z,17.54
2022-11-29T10:26:34.853Z,17.77
2022-11-29T10:29:04.428Z,17.39
2022-11-29T10:31:44.247Z,17.18
2022-11-29T10:34:15.877Z,17.28
2022-11-29T10:36:49.722Z,16.97
2022-11-29T10:40:05.165Z,16.57
2022-11-29T10:42:50.142Z,16.17
2022-11-29T10:46:01.037Z,15.78
2022-11-29T10:48:34.509Z,15.42
2022-11-29T10:51:04.362Z,14.89
2022-11-29T10:53:37.976Z,14.16
2022-11-29T10:56:15.299Z,13.75
2022-11-29T10:59:21.301Z,13.35
2022-11-29T11:01:50.424Z,12.95
2022-11-29T11:04:28.984Z,12.56
2022-11-29T11:07:02.140Z,12.16
2022-11-29T11:09:43.268Z,11.91
2022-11-29T11:12:21.992Z,11.45
2022-11-29T11:14:52.437Z,11.44
2022-11-29T11:17:26.982Z,11.22
2022-11-29T11:20:03.201Z,10.79
2022-11-29T11:22:33.905Z,10.76
2022-11-29T11:25:07.426Z,10.32
2022-11-29T11:27:41.180Z,10.54
2022-11-29T11:30:24.500Z,10.42
2022-11-29T11:33:09.522Z,10.36
2022-11-29T11:35:38.785Z,10.07
2022-11-29T11:38:16.074Z,9.93
2022-11-29T11:40:46.113Z,9.95
2022-11-29T11:43:21.400Z,9.75
2022-11-29T11:45:55.786Z,9.83
2022-11-29T11:48:25.390Z,9.60
2022-11-29T11:51:00.596Z,9.49
2022-11-29T11:53:36.725Z,9.49
2022-11-29T11:56:09.506Z,9.79
2022-11-29T11:58:52.948Z,9.67
2022-11-29T12:01:26.777Z,9.54
2022-11-29T12:04:07.669Z,9.65
2022-11-29T12:06:53.508Z,9.54
2022-11-29T12:09:48.538Z,9.54
2022-11-29T12:12:24.555Z,9.44
2022-11-29T12:15:00.115Z,9.32
2022-11-29T12:17:29.059Z,9.42
2022-11-29T12:20:23.505Z,9.38
2022-11-29T12:23:11.964Z,9.28
2022-11-29T12:26:01.820Z,9.22
2022-11-29T12:28:36.957Z,9.14
2022-11-29T12:31:38.746Z,9.07
2022-11-29T12:34:35.852Z,9.11
2022-11-29T12:37:23.582Z,9.01
2022-11-29T12:40:38.382Z,8.94
2022-11-29T12:43:19.192Z,9.00
2022-11-29T12:46:32.048Z,9.10
2022-11-29T12:49:19.661Z,9.09
2022-11-29T12:52:10.302Z,8.93
2022-11-29T12:55:17.008Z,9.05
2022-11-29T12:57:54.962Z,9.03
2022-11-29T13:01:01.268Z,8.92
2022-11-29T13:04:01.341Z,8.70
2022-11-29T13:06:43.661Z,8.41
2022-11-29T13:09:47.238Z,8.35
2022-11-29T13:12:42.002Z,8.25
2022-11-29T13:16:07.854Z,8.23
2022-11-29T13:18:51.428Z,8.25
2022-11-29T13:21:36.107Z,8.17
2022-11-29T13:24:13.422Z,8.14
2022-11-29T13:26:45.129Z,8.01
2022-11-29T13:29:18.039Z,7.59
2022-11-29T13:31:49.100Z,7.73
2022-11-29T13:34:50.187Z,7.89
2022-11-29T13:37:28.703Z,7.83
2022-11-29T13:40:39.340Z,7.61
2022-11-29T13:43:19.001Z,7.10
2022-11-29T13:45:53.606Z,7.23
2022-11-29T13:48:51.661Z,7.14
2022-11-29T13:51:38.841Z,6.98
2022-11-29T13:54:47.569Z,6.89
2022-11-29T13:57:17.961Z,7.03
2022-11-29T13:59:53.300Z,7.01
2022-11-29T14:02:30.623Z,7.17
2022-11-29T14:05:06.329Z,6.87
2022-11-29T14:07:37.524Z,7.01
2022-11-29T14:10:29.118Z,7.18
2022-11-29T14:13:02.733Z,7.21
2022-11-29T14:15:34.218Z,7.16
2022-11-29T14:18:10.774Z,7.01
2022-11-29T14:20:46.598Z,6.96
2022-11-29T14:23:17.633Z,6.99
2022-11-29T14:25:58.582Z,7.04
2022-11-29T14:28:32.889Z,6.93
2022-11-29T14:31:03.163Z,7.05
2022-11-29T14:34:09.878Z,7.04
2022-11-29T14:37:09.382Z,6.90
2022-11-29T14:39:50.961Z,6.94
2022-11-29T14:42:48.742Z,7.04
2022-11-29T14:45:41.002Z,7.04
2022-11-29T14:48:33.249Z,6.99
2022-11-29T14:51:32.682Z,7.16
2022-11-29T14:54:08.161Z,7.21
2022-11-29T14:56:43.963Z,7.08
2022-11-29T14:59:41.964Z,7.22
2022-11-29T15:02:35.701Z,7.24
2022-11-29T15:05:45.052Z,7.09
2022-11-29T15:08:45.707Z,7.10
2022-11-29T15:11:37.092Z,7.14
2022-11-29T15:14:46.681Z,7.14
2022-11-29T15:18:02.120Z,7.12
2022-11-29T15:20:59.122Z,7.12
2022-11-29T15:23:34.433Z,6.97
2022-11-29T15:26:03.622Z,6.92
2022-11-29T15:28:39.492Z,6.97
2022-11-29T15:31:21.543Z,7.06
2022-11-29T15:33:56.825Z,6.95
2022-11-29T15:36:29.206Z,7.04
2022-11-29T15:39:01.544Z,7.04
2022-11-29T15:41:42.773Z,7.11
2022-11-29T15:44:24.383Z,7.09
2022-11-29T15:47:28.771Z,7.18
2022-11-29T15:50:17.713Z,7.19
2022-11-29T15:52:48.824Z,7.10
2022-11-29T15:55:24.962Z,7.11
2022-11-29T15:58:07.047Z,7.27
2022-11-29T16:00:38.548Z,7.13
2022-11-29T16:03:21.946Z,7.15
2022-11-29T16:05:57.260Z,7.26
2022-11-29T16:08:31.067Z,7.43
2022-11-29T16:11:01.558Z,7.66
2022-11-29T16:13:36.214Z,7.74
2022-11-29T16:16:18.767Z,7.61
2022-11-29T16:18:50.548Z,7.44
2022-11-29T16:21:27.035Z,7.66
2022-11-29T16:23:57.956Z,7.48
2022-11-29T16:26:33.703Z,7.46
2022-11-29T16:29:11.984Z,7.31
2022-11-29T16:31:42.858Z,7.28
2022-11-29T16:34:32.983Z,7.39
2022-11-29T16:37:05.905Z,7.29
2022-11-29T16:39:49.637Z,7.17
2022-11-29T16:42:28.390Z,7.16
2022-11-29T16:45:28.214Z,7.14
2022-11-29T16:48:01.567Z,7.08
2022-11-29T16:50:34.343Z,7.17
2022-11-29T16:53:37.305Z,7.16
2022-11-29T16:56:09.783Z,7.18
2022-11-29T16:59:16.596Z,7.15
2022-11-29T17:01:32.464Z,7.09
2022-11-29T17:04:05.170Z,6.95
2022-11-29T17:06:36.845Z,6.96
2022-11-29T17:09:06.977Z,6.81
2022-11-29T17:11:36.097Z,6.86
2022-11-29T17:14:05.302Z,6.80
2022-11-29T17:16:34.375Z,6.90
2022-11-29T17:19:03.383Z,6.83
2022-11-29T17:21:33.288Z,6.71
2022-11-29T17:24:02.440Z,6.69
2022-11-29T17:26:31.353Z,6.43
2022-11-29T17:29:00.604Z,6.79
2022-11-29T17:31:30.853Z,6.88
2022-11-29T17:34:01.808Z,6.71
2022-11-29T17:36:31.668Z,6.57
2022-11-29T17:39:01.629Z,6.58
2022-11-29T17:41:33.875Z,6.59
2022-11-29T17:44:03.384Z,6.52
2022-11-29T17:46:35.627Z,6.85
2022-11-29T17:49:09.087Z,6.83
2022-11-29T17:51:56.992Z,6.81
2022-11-29T17:54:26.933Z,6.76
2022-11-29T17:56:57.403Z,7.09
2022-11-29T17:59:26.562Z,6.90
2022-11-29T18:01:56.024Z,6.79
2022-11-29T18:04:25.606Z,6.71
2022-11-29T18:06:55.676Z,6.76
2022-11-29T18:09:24.815Z,6.75
2022-11-29T18:11:56.157Z,6.65
2022-11-29T18:14:29.235Z,6.69
2022-11-29T18:16:58.429Z,6.27
2022-11-29T18:19:27.319Z,6.44
2022-11-29T18:21:57.039Z,6.23
2022-11-29T18:24:28.522Z,6.30
2022-11-29T18:26:57.685Z,6.28
2022-11-29T18:29:26.693Z,6.43
2022-11-29T18:31:56.916Z,6.31
2022-11-29T18:34:25.759Z,6.27
2022-11-29T18:36:55.010Z,6.41
2022-11-29T18:39:26.196Z,6.37
2022-11-29T18:41:55.850Z,6.17
2022-11-29T18:44:31.724Z,6.19
2022-11-29T18:47:02.822Z,6.03
2022-11-29T18:49:31.984Z,6.15
2022-11-29T18:52:00.782Z,6.45
2022-11-29T18:54:31.904Z,6.31
2022-11-29T18:57:01.038Z,6.20
2022-11-29T18:59:29.871Z,6.44
2022-11-29T19:01:59.062Z,6.59
2022-11-29T19:04:27.982Z,6.65
2022-11-29T19:06:57.052Z,6.49
2022-11-29T19:09:26.050Z,6.35
2022-11-29T19:11:55.230Z,6.20
2022-11-29T19:14:25.414Z,6.28
2022-11-29T19:16:54.454Z,6.18
2022-11-29T19:19:26.355Z,6.28
2022-11-29T19:21:55.655Z,5.99
2022-11-29T19:24:27.997Z,6.10
2022-11-29T19:26:59.008Z,6.28
2022-11-29T19:29:28.496Z,6.04
2022-11-29T19:31:58.196Z,5.76
2022-11-29T19:34:29.393Z,6.03
2022-11-29T19:36:58.519Z,5.98
2022-11-29T19:39:28.678Z,5.70
2022-11-29T19:41:59.368Z,5.36
2022-11-29T19:44:30.046Z,5.39
2022-11-29T19:46:59.244Z,5.17
2022-11-29T19:49:28.266Z,5.21
2022-11-29T19:51:57.194Z,5.27
2022-11-29T19:54:25.930Z,5.31
2022-11-29T19:56:56.611Z,5.54
2022-11-29T19:59:25.923Z,5.59
2022-11-29T20:01:54.893Z,5.64
2022-11-29T20:04:23.737Z,5.51
2022-11-29T20:06:52.934Z,5.54
2022-11-29T20:09:23.273Z,5.46
2022-11-29T20:11:52.899Z,5.54
2022-11-29T20:14:21.588Z,5.49
2022-11-29T20:16:51.766Z,5.57
2022-11-29T20:19:20.713Z,5.57
2022-11-29T20:21:50.520Z,5.75
2022-11-29T20:24:20.385Z,5.88
2022-11-29T20:26:50.347Z,5.76
2022-11-29T20:29:20.304Z,5.95
2022-11-29T20:31:50.928Z,5.78
2022-11-29T20:34:20.943Z,6.03
2022-11-29T20:37:26.324Z,6.22
2022-11-29T20:40:02.635Z,6.40
2022-11-29T20:42:40.480Z,6.35
2022-11-29T20:45:14.887Z,6.49
2022-11-29T20:47:59.001Z,6.50
2022-11-29T20:50:31.381Z,6.36
2022-11-29T20:53:03.367Z,6.61
2022-11-29T20:55:32.359Z,6.69
2022-11-29T20:58:01.167Z,6.78
2022-11-29T21:00:30.179Z,6.54
2022-11-29T21:02:58.955Z,6.47
2022-11-29T21:05:29.057Z,6.68
2022-11-29T21:07:58.974Z,6.55
2022-11-29T21:10:27.873Z,6.27
2022-11-29T21:12:57.573Z,6.60
2022-11-29T21:15:26.848Z,6.62
2022-11-29T21:17:55.964Z,6.70
2022-11-29T21:20:26.973Z,6.93
2022-11-29T21:23:12.755Z,7.09
2022-11-29T21:26:15.994Z,7.09
2022-11-29T21:28:58.887Z,7.15
2022-11-29T21:31:28.818Z,7.06
2022-11-29T21:33:57.787Z,6.96
2022-11-29T21:36:26.730Z,7.03
2022-11-29T21:38:55.735Z,6.95
2022-11-29T21:41:26.022Z,6.78
2022-11-29T21:44:09.734Z,6.64
2022-11-29T21:46:39.010Z,6.86
2022-11-29T21:49:07.967Z,6.76
2022-11-29T21:51:36.954Z,6.87
2022-11-29T21:54:06.045Z,6.69
2022-11-29T21:56:34.939Z,6.72
2022-11-29T21:59:03.566Z,6.82
2022-11-29T22:01:34.612Z,6.54
2022-11-29T22:04:04.524Z,6.82
2022-11-29T22:06:33.403Z,6.60
2022-11-29T22:09:02.922Z,6.56
2022-11-29T22:11:32.382Z,6.61
2022-11-29T22:14:15.398Z,6.79
2022-11-29T22:16:53.129Z,6.85
2022-11-29T22:19:24.545Z,6.79
2022-11-29T22:21:56.396Z,6.63
2022-11-29T22:24:28.218Z,6.73
2022-11-29T22:26:57.818Z,6.58
2022-11-29T22:29:27.305Z,6.64
2022-11-29T22:31:58.141Z,6.47
2022-11-29T22:34:28.571Z,6.43
2022-11-29T22:36:57.458Z,6.55
2022-11-29T22:39:26.606Z,6.40
2022-11-29T22:41:55.636Z,6.60
2022-11-29T22:44:25.469Z,6.53
2022-11-29T22:46:54.442Z,6.21
2022-11-29T22:49:23.396Z,6.51
2022-11-29T22:51:53.205Z,6.45
2022-11-29T22:54:22.367Z,6.19
2022-11-29T22:56:51.118Z,6.38
2022-11-29T22:59:19.847Z,6.01
2022-11-29T23:01:48.953Z,6.02
2022-11-29T23:04:17.737Z,6.35
2022-11-29T23:06:47.919Z,6.21
2022-11-29T23:09:22.428Z,6.27
2022-11-29T23:11:57.051Z,6.37
2022-11-29T23:14:26.290Z,6.37
2022-11-29T23:16:55.205Z,6.38
2022-11-29T23:19:24.016Z,6.81
2022-11-29T23:21:52.941Z,7.18
2022-11-29T23:24:21.751Z,7.23
2022-11-29T23:26:50.431Z,7.21
2022-11-29T23:29:20.842Z,7.12
2022-11-29T23:31:50.189Z,7.32
2022-11-29T23:34:18.882Z,7.23
2022-11-29T23:36:52.680Z,7.33
2022-11-29T23:39:22.249Z,7.27
2022-11-29T23:41:50.946Z,7.05
2022-11-29T23:44:19.861Z,7.10
2022-11-29T23:46:48.557Z,7.14
2022-11-29T23:49:17.425Z,6.86
2022-11-29T23:51:46.059Z,6.93
2022-11-29T23:54:14.925Z,6.89
2022-11-29T23:56:43.650Z,6.77
2022-11-29T23:59:12.497Z,6.84
